La Grange Park, Illinois
Current Conditions -  °F | °C
As of 3:53 PM on Thursday 23 Oct 2014 (Local Time) from KMDW Reporting Station
Overcast Overcast  
Wind Chill: 16°   Ceiling: 18000
Heat Index: 16°   Visibility: 10mi
Dew Point:   Wind: 12mph
Humidity: 47%   Direction: 200°SSW
Pressure: 30.09"   Gusts: NA
Location:  41.82°N, 87.87°W
Report Text: KMDW 232053Z 20010KT 10SM BKN180 OVC200 16/04 A3009 RMK AO2 SLP189 VIRGA OHD T01560044 56022
Loading
Personal Weather Stations






























Interactive Weather Map
Tropical Storm Tracking
New forecast layout! Learn more

10-Day Weather Forecast

Advertisements
Track Severe Weather on mobile